• Join FlightAware (Why Join?)
  • Login
  • US Flag 
07:12PM EDT


 

Airport Tracker/Info


-or-


 

Live Flight TrackerFlight Track Log ✈ EJA982 ✈ 15-Dec-2013 ✈ KEGE - KHOU

Flight Track Log - Related Links

Times and Time Zones

All times are in EST time to prevent confusion due to time zone crossing. See the EJA982 flight status page for this flight to view local times or setup timezone preferences in your user account.

Time Position Orientation Groundspeed Altitude Reporting Facility
EST Latitude Longitude Course Direction KTS MPH feet Rate Location/Type
06:39PM 39.6308 -106.9533 242° Southwest 191 220 8,800  Level Denver Center
06:40PM 39.5997 -107.0306 242° Southwest 215 247 14,400 4,140 Climbing Denver Center
06:41PM 39.6525 -107.0361 355° North 240 276 17,300 3,360 Climbing Denver Center
06:42PM 39.6836 -106.9258 70° East 306 352 21,400 2,340 Climbing Denver Center
06:43PM 39.6606 -106.8033 104° East 388 447 22,200 1,200 Climbing Denver Center
06:44PM 39.6242 -106.6336 106° East 436 502 24,000 1,920 Climbing Denver Center
06:45PM 39.5956 -106.4964 105° East 451 519 26,200 3,000 Climbing Denver Center
06:46PM 39.5567 -106.3014 104° East 461 531 30,200 2,760 Climbing Denver Center
06:47PM 39.4758 -106.1697 128° Southeast 472 543 32,000 1,620 Climbing Denver Center
06:48PM 39.3639 -106.0431 139° Southeast 497 572 33,600 1,500 Climbing Denver Center
06:49PM 39.2544 -105.9200 139° Southeast 520 598 35,100 1,500 Climbing Denver Center
06:50PM 39.1411 -105.7928 139° Southeast 540 621 36,800 2,220 Climbing Denver Center
06:51PM 39.0311 -105.6703 139° Southeast 531 611 39,800 1,980 Climbing Denver Center
06:52PM 38.9258 -105.5528 139° Southeast 511 588 41,000 540 Climbing Denver Center
06:53PM 38.7914 -105.4019 139° Southeast 531 611 41,000  Level Denver Center
06:54PM 38.6731 -105.2692 139° Southeast 561 646 41,000  Level Denver Center
06:55PM 38.5525 -105.1372 139° Southeast 572 658 41,000  Level Denver Center
06:56PM 38.4314 -105.0044 139° Southeast 576 663 41,000  Level Denver Center
06:58PM 38.2731 -104.8300 139° Southeast 584 672 41,000  Level Denver Center
06:59PM 38.1597 -104.7067 139° Southeast 566 651 41,000  Level Denver Center
07:00PM 38.0306 -104.5681 140° Southeast 546 628 41,000  Level Denver Center
07:01PM 37.9211 -104.4506 140° Southeast 539 620 41,000  Level Denver Center
07:02PM 37.7939 -104.3153 140° Southeast 536 617 41,000  Level Denver Center
07:03PM 37.6819 -104.1967 140° Southeast 546 628 41,000  Level Denver Center
07:04PM 37.5633 -104.0700 140° Southeast 563 648 41,000  Level Denver Center
07:05PM 37.4364 -103.9356 140° Southeast 578 665 41,000  Level Denver Center
07:06PM 37.2983 -103.7903 140° Southeast 580 667 41,000  Level Denver Center
07:07PM 37.1808 -103.6661 140° Southeast 578 665 41,000  Level Denver Center
07:08PM 37.0408 -103.5211 140° Southeast 583 671 41,000  Level Denver Center
07:09PM 36.9017 -103.3781 141° Southeast 582 670 41,000  Level Albuquerque Center
07:10PM 36.7822 -103.2553 141° Southeast 581 669 41,000  Level Albuquerque Center
07:11PM 36.6631 -103.1319 140° Southeast 581 669 41,000  Level Albuquerque Center
07:12PM 36.5256 -102.9917 141° Southeast 582 670 41,000  Level Albuquerque Center
07:13PM 36.4058 -102.8669 140° Southeast 584 672 41,000  Level Albuquerque Center
07:14PM 36.2778 -102.7392 141° Southeast 589 678 41,000  Level Albuquerque Center
07:15PM 36.1514 -102.6111 141° Southeast 589 678 41,000  Level Albuquerque Center
07:16PM 36.0006 -102.4583 141° Southeast 587 676 41,000  Level Albuquerque Center
07:17PM 35.8736 -102.3308 141° Southeast 588 677 41,000  Level Albuquerque Center
07:18PM 35.7492 -102.2072 141° Southeast 580 667 41,000  Level Albuquerque Center
07:19PM 35.6239 -102.0839 141° Southeast 577 664 41,000  Level Albuquerque Center
07:20PM 35.5014 -101.9611 141° Southeast 572 658 41,000  Level Albuquerque Center
07:21PM 35.3636 -101.8228 141° Southeast 569 655 41,000  Level Albuquerque Center
07:22PM 35.2375 -101.6983 141° Southeast 573 659 41,000  Level Albuquerque Center
07:23PM 35.1356 -101.5408 128° Southeast 569 655 41,000  Level Albuquerque Center
07:24PM 35.0364 -101.3883 128° Southeast 573 659 41,000  Level Albuquerque Center
07:25PM 34.9433 -101.2472 129° Southeast 578 665 41,000  Level Albuquerque Center
07:26PM 34.8442 -101.0939 128° Southeast 577 664 41,000  Level Albuquerque Center
07:27PM 34.7444 -100.9408 128° Southeast 578 665 41,000  Level Albuquerque Center
07:28PM 34.6236 -100.7581 129° Southeast 579 666 41,000  Level Albuquerque Center
07:29PM 34.5222 -100.6072 129° Southeast 578 665 41,000  Level Albuquerque Center
07:30PM 34.4214 -100.4553 129° Southeast 579 666 41,000  Level Albuquerque Center
07:31PM 34.3569 -100.3678 132° Southeast 579 666 41,000  Level Fort Worth Center
07:32PM 34.2386 -100.2050 131° Southeast 572 658 41,000  Level Fort Worth Center
07:33PM 34.1342 -100.0581 131° Southeast 573 659 41,000  Level Fort Worth Center
07:34PM 34.0297 -99.9167 132° Southeast 565 650 41,000  Level Fort Worth Center
07:35PM 33.9261 -99.7714 131° Southeast 567 652 41,000  Level Fort Worth Center
07:36PM 33.8219 -99.6261 131° Southeast 572 658 41,000  Level Fort Worth Center
07:37PM 33.7167 -99.4836 132° Southeast 569 655 41,000  Level Fort Worth Center
07:38PM 33.5903 -99.3117 131° Southeast 571 657 41,000  Level Fort Worth Center
07:39PM 33.4847 -99.1686 131° Southeast 570 656 41,000  Level Fort Worth Center
07:40PM 33.3786 -99.0244 131° Southeast 574 661 41,000  Level Fort Worth Center
07:41PM 33.2717 -98.8806 132° Southeast 571 657 41,000  Level Fort Worth Center
07:42PM 33.1689 -98.7406 131° Southeast 567 652 41,000  Level Fort Worth Center
07:44PM 33.0625 -98.5986 132° Southeast 569 655 41,000  Level Fort Worth Center
07:45PM 32.9542 -98.4581 133° Southeast 573 659 41,000  Level Fort Worth Center
07:46PM 32.8478 -98.3172 132° Southeast 565 650 41,000  Level Fort Worth Center
07:47PM 32.7217 -98.1519 132° Southeast 565 650 41,000  Level Fort Worth Center
07:48PM 32.6186 -98.0158 132° Southeast 561 646 41,000  Level Fort Worth Center
07:49PM 32.5142 -97.8767 132° Southeast 566 651 41,000  Level Fort Worth Center
07:50PM 32.4094 -97.7414 132° Southeast 563 648 41,000  Level Fort Worth Center
07:51PM 32.3058 -97.6056 132° Southeast 560 644 41,000  Level Fort Worth Center
07:52PM 32.1803 -97.4428 132° Southeast 562 647 41,000  Level Fort Worth Center
07:53PM 32.0761 -97.3078 132° Southeast 561 646 41,000 -540 Level Fort Worth Center
07:54PM 31.9725 -97.1714 132° Southeast 561 646 40,000 -1,020 Descending Fort Worth Center
07:55PM 31.8683 -97.0436 134° Southeast 547 629 39,000 -540 Descending Fort Worth Center
07:56PM 31.7633 -96.9089 132° Southeast 549 632 39,000  Level Fort Worth Center
07:57PM 31.6308 -96.8256 152° Southeast 538 619 39,000  Level Fort Worth Center
07:58PM 31.4628 -96.7994 172° South 514 592 39,000 -360 Level Fort Worth Center
07:59PM 31.3183 -96.7761 172° South 517 595 38,300 -1,800 Descending Fort Worth Center
08:00PM 31.1761 -96.7528 172° South 509 586 35,300 -2,820 Descending Fort Worth Center
08:01PM 31.0433 -96.7317 172° South 478 550 32,500 -2,700 Descending Fort Worth Center
08:02PM 30.9203 -96.7133 173° South 445 512 29,800 -2,520 Descending Fort Worth Center
08:03PM 30.8019 -96.6942 172° South 426 490 27,300 -2,640 Descending Fort Worth Center
08:04PM 30.6764 -96.6736 172° South 446 513 24,400 -2,940 Descending Fort Worth Center
08:05PM 30.5456 -96.6125 158° South 513 590 21,300 -3,000 Descending Fort Worth Center
08:06PM 30.4503 -96.5019 135° Southeast 489 563 18,300 -2,940 Descending Fort Worth Center
08:07PM 30.3925 -96.4317 134° Southeast 447 514 16,700 -2,880 Descending Houston Center
08:08PM 30.3225 -96.3472 134° Southeast 428 493 14,400 -2,460 Descending Houston Center
08:09PM 30.2564 -96.2639 133° Southeast 422 486 12,300 -2,520 Descending Houston Center
08:09PM 30.2336 -96.2389 137° Southeast 411 473 11,600 -1,200 Descending Houston Center
08:10PM 30.1689 -96.1850 144° Southeast 397 457 11,100 -540 Descending Houston Center
08:10PM 30.1419 -96.1719 157° South 379 436 11,100 -120 Level Houston Center
08:11PM 30.0739 -96.1353 155° Southeast 377 434 11,000 -360 Descending Houston Center
08:11PM 30.0431 -96.1203 157° South 310 357 10,700 -1,920 Descending Houston Center
08:12PM 29.9808 -96.0861 155° Southeast 309 356 9,100 -1,980 Descending Houston Center
08:12PM 29.9617 -96.0764 156° South 304 350 8,700 -1,860 Descending Houston Center
08:13PM 29.9161 -96.0272 137° Southeast 303 349 7,200 -1,800 Descending Houston Center
08:13PM 29.9106 -96.0172 123° Southeast 289 333 7,100 -120 Descending Houston Center
08:14PM 29.8958 -95.9467 104° East 288 331 7,100  Level Houston Center
08:14PM 29.8922 -95.9278 102° East 293 337 7,100 -120 Level Houston Center
08:15PM 29.8742 -95.8572 106° East 292 336 7,000  Descending Houston Center
08:15PM 29.8653 -95.8369 117° Southeast 292 336 7,100 -420 Climbing Houston Center
08:16PM 29.8461 -95.7717 109° East 287 330 6,600 -840 Descending Houston Center
08:16PM 29.8389 -95.7508 112° Southeast 279 321 6,300 -1,380 Descending Houston Center
08:17PM 29.8153 -95.6744 110° East 271 312 5,200 -1,140 Descending Houston Center
08:18PM 29.7892 -95.5942 111° Southeast 268 308 4,100 -1,020 Descending Houston Center
08:18PM 29.7864 -95.5861 112° Southeast 269 310 4,100 -120 Level Houston Center
08:19PM 29.7667 -95.5222 110° East 248 285 4,000 -900 Descending Houston Center
08:20PM 29.7489 -95.4647 110° East 199 229 2,400 -1,620 Descending Houston Center
08:20PM 29.7456 -95.4586 122° Southeast 194 223 2,300 -420 Descending Houston Center
08:21PM 29.7308 -95.4069 108° East 194 223 2,000 -180 Descending Houston Center
08:21PM 29.7247 -95.3939 118° Southeast 183 211 2,100 -240 Climbing Houston Center
08:22PM 29.7086 -95.3536 115° Southeast 195 224 1,800 -720 Descending Houston Center
08:23PM 29.6711 -95.3111 135° Southeast 155 178 800 -900 Descending Houston Center
08:23PM 29.6769 -95.3158 325° Northwest 175 201 900 -720 Climbing Houston Center
08:24PM 29.6486 -95.2819 134° Southeast 160 184 100 -840 Descending Houston Center
08:26PM 29.6454 -95.2789 116° Southeast  Level Estimated